sensor_id;sensor_type;location;lat;lon;timestamp;P1;durP1;ratioP1;P2;durP2;ratioP2
9795;SDS011;4937;42.680;27.704;2024-01-06T00:01:28;9.13;;;5.07;;
9795;SDS011;4937;42.680;27.704;2024-01-06T00:03:54;9.48;;;5.88;;
9795;SDS011;4937;42.680;27.704;2024-01-06T00:06:20;8.07;;;4.80;;
9795;SDS011;4937;42.680;27.704;2024-01-06T00:08:45;9.75;;;5.43;;
9795;SDS011;4937;42.680;27.704;2024-01-06T00:11:11;9.48;;;5.60;;
9795;SDS011;4937;42.680;27.704;2024-01-06T00:13:37;8.07;;;5.03;;
9795;SDS011;4937;42.680;27.704;2024-01-06T00:16:02;8.63;;;5.28;;
9795;SDS011;4937;42.680;27.704;2024-01-06T00:18:28;10.55;;;5.85;;
9795;SDS011;4937;42.680;27.704;2024-01-06T00:20:54;10.50;;;5.95;;
9795;SDS011;4937;42.680;27.704;2024-01-06T00:23:19;9.32;;;5.10;;
9795;SDS011;4937;42.680;27.704;2024-01-06T00:25:44;8.57;;;5.30;;
9795;SDS011;4937;42.680;27.704;2024-01-06T00:28:10;8.93;;;4.93;;
9795;SDS011;4937;42.680;27.704;2024-01-06T00:30:36;8.90;;;5.07;;
9795;SDS011;4937;42.680;27.704;2024-01-06T00:33:01;11.95;;;5.47;;
9795;SDS011;4937;42.680;27.704;2024-01-06T00:35:27;11.98;;;5.10;;
9795;SDS011;4937;42.680;27.704;2024-01-06T00:37:52;5.47;;;3.75;;
9795;SDS011;4937;42.680;27.704;2024-01-06T00:40:18;9.00;;;4.40;;
9795;SDS011;4937;42.680;27.704;2024-01-06T00:42:44;9.88;;;5.35;;
9795;SDS011;4937;42.680;27.704;2024-01-06T00:45:10;9.50;;;5.13;;
9795;SDS011;4937;42.680;27.704;2024-01-06T00:47:35;8.88;;;4.65;;
9795;SDS011;4937;42.680;27.704;2024-01-06T00:50:01;8.02;;;4.28;;
9795;SDS011;4937;42.680;27.704;2024-01-06T00:52:27;9.50;;;4.70;;
9795;SDS011;4937;42.680;27.704;2024-01-06T00:54:52;7.50;;;4.78;;
9795;SDS011;4937;42.680;27.704;2024-01-06T00:57:18;6.45;;;4.47;;
9795;SDS011;4937;42.680;27.704;2024-01-06T00:59:49;9.32;;;5.38;;
9795;SDS011;4937;42.680;27.704;2024-01-06T01:02:14;8.10;;;4.55;;
9795;SDS011;4937;42.680;27.704;2024-01-06T01:04:40;11.30;;;5.53;;
9795;SDS011;4937;42.680;27.704;2024-01-06T01:07:05;10.63;;;6.30;;
9795;SDS011;4937;42.680;27.704;2024-01-06T01:09:31;6.80;;;4.57;;
9795;SDS011;4937;42.680;27.704;2024-01-06T01:11:56;9.73;;;5.28;;
9795;SDS011;4937;42.680;27.704;2024-01-06T01:14:22;6.00;;;4.68;;
9795;SDS011;4937;42.680;27.704;2024-01-06T01:16:47;8.65;;;5.07;;
9795;SDS011;4937;42.680;27.704;2024-01-06T01:19:13;8.60;;;5.18;;
9795;SDS011;4937;42.680;27.704;2024-01-06T01:21:39;6.63;;;4.40;;
9795;SDS011;4937;42.680;27.704;2024-01-06T01:24:05;7.90;;;4.43;;
9795;SDS011;4937;42.680;27.704;2024-01-06T01:26:30;8.88;;;4.53;;
9795;SDS011;4937;42.680;27.704;2024-01-06T01:28:56;6.68;;;4.03;;
9795;SDS011;4937;42.680;27.704;2024-01-06T01:31:21;10.30;;;4.72;;
9795;SDS011;4937;42.680;27.704;2024-01-06T01:33:47;7.75;;;3.90;;
9795;SDS011;4937;42.680;27.704;2024-01-06T01:36:12;7.68;;;4.03;;
9795;SDS011;4937;42.680;27.704;2024-01-06T01:38:38;6.80;;;3.90;;
9795;SDS011;4937;42.680;27.704;2024-01-06T01:41:03;5.93;;;3.67;;
9795;SDS011;4937;42.680;27.704;2024-01-06T01:43:29;8.15;;;4.00;;
9795;SDS011;4937;42.680;27.704;2024-01-06T01:45:55;5.03;;;3.78;;
9795;SDS011;4937;42.680;27.704;2024-01-06T01:48:21;6.72;;;3.50;;
9795;SDS011;4937;42.680;27.704;2024-01-06T01:50:47;6.38;;;3.63;;
9795;SDS011;4937;42.680;27.704;2024-01-06T01:53:13;7.97;;;4.40;;
9795;SDS011;4937;42.680;27.704;2024-01-06T01:55:40;10.93;;;4.38;;
9795;SDS011;4937;42.680;27.704;2024-01-06T01:58:07;8.57;;;4.10;;
9795;SDS011;4937;42.680;27.704;2024-01-06T02:00:34;6.55;;;3.78;;
9795;SDS011;4937;42.680;27.704;2024-01-06T02:02:59;8.45;;;4.38;;
9795;SDS011;4937;42.680;27.704;2024-01-06T02:05:28;7.75;;;4.53;;
9795;SDS011;4937;42.680;27.704;2024-01-06T02:07:53;7.25;;;4.63;;
9795;SDS011;4937;42.680;27.704;2024-01-06T02:10:19;6.53;;;4.13;;
9795;SDS011;4937;42.680;27.704;2024-01-06T02:12:45;9.68;;;5.22;;
9795;SDS011;4937;42.680;27.704;2024-01-06T02:15:10;6.45;;;4.57;;
9795;SDS011;4937;42.680;27.704;2024-01-06T02:17:36;9.88;;;5.53;;
9795;SDS011;4937;42.680;27.704;2024-01-06T02:20:01;8.40;;;4.90;;
9795;SDS011;4937;42.680;27.704;2024-01-06T02:22:27;5.65;;;3.88;;
9795;SDS011;4937;42.680;27.704;2024-01-06T02:24:53;8.15;;;4.68;;
9795;SDS011;4937;42.680;27.704;2024-01-06T02:27:19;8.38;;;4.93;;
9795;SDS011;4937;42.680;27.704;2024-01-06T02:29:44;7.70;;;4.40;;
9795;SDS011;4937;42.680;27.704;2024-01-06T02:32:10;10.05;;;4.93;;
9795;SDS011;4937;42.680;27.704;2024-01-06T02:34:35;8.70;;;4.75;;
9795;SDS011;4937;42.680;27.704;2024-01-06T02:37:03;8.85;;;4.70;;
9795;SDS011;4937;42.680;27.704;2024-01-06T02:39:29;7.20;;;4.03;;
9795;SDS011;4937;42.680;27.704;2024-01-06T02:41:54;10.35;;;4.75;;
9795;SDS011;4937;42.680;27.704;2024-01-06T02:44:20;10.85;;;5.05;;
9795;SDS011;4937;42.680;27.704;2024-01-06T02:46:45;9.02;;;4.68;;
9795;SDS011;4937;42.680;27.704;2024-01-06T02:49:10;11.68;;;5.65;;
9795;SDS011;4937;42.680;27.704;2024-01-06T02:51:36;10.35;;;4.97;;
9795;SDS011;4937;42.680;27.704;2024-01-06T02:54:01;7.82;;;4.50;;
9795;SDS011;4937;42.680;27.704;2024-01-06T02:56:27;9.82;;;5.38;;
9795;SDS011;4937;42.680;27.704;2024-01-06T02:58:53;9.80;;;4.93;;
9795;SDS011;4937;42.680;27.704;2024-01-06T03:01:18;7.68;;;4.70;;
9795;SDS011;4937;42.680;27.704;2024-01-06T03:03:44;7.43;;;4.43;;
9795;SDS011;4937;42.680;27.704;2024-01-06T03:06:09;7.63;;;4.45;;
9795;SDS011;4937;42.680;27.704;2024-01-06T03:08:35;8.70;;;4.57;;
9795;SDS011;4937;42.680;27.704;2024-01-06T03:11:01;8.65;;;4.78;;
9795;SDS011;4937;42.680;27.704;2024-01-06T03:13:28;9.20;;;4.63;;
9795;SDS011;4937;42.680;27.704;2024-01-06T03:15:54;10.65;;;5.18;;
9795;SDS011;4937;42.680;27.704;2024-01-06T03:18:20;8.85;;;3.95;;
9795;SDS011;4937;42.680;27.704;2024-01-06T03:20:45;6.45;;;3.95;;
9795;SDS011;4937;42.680;27.704;2024-01-06T03:23:10;7.82;;;5.03;;
9795;SDS011;4937;42.680;27.704;2024-01-06T03:25:36;8.65;;;4.50;;
9795;SDS011;4937;42.680;27.704;2024-01-06T03:28:01;7.68;;;4.38;;
9795;SDS011;4937;42.680;27.704;2024-01-06T03:30:27;8.13;;;4.72;;
9795;SDS011;4937;42.680;27.704;2024-01-06T03:32:53;8.55;;;4.75;;
9795;SDS011;4937;42.680;27.704;2024-01-06T03:35:18;8.55;;;4.70;;
9795;SDS011;4937;42.680;27.704;2024-01-06T03:37:44;9.07;;;4.65;;
9795;SDS011;4937;42.680;27.704;2024-01-06T03:40:10;7.50;;;4.32;;
9795;SDS011;4937;42.680;27.704;2024-01-06T03:42:36;5.72;;;3.55;;
9795;SDS011;4937;42.680;27.704;2024-01-06T03:45:02;10.25;;;3.95;;
9795;SDS011;4937;42.680;27.704;2024-01-06T03:47:28;9.13;;;4.32;;
9795;SDS011;4937;42.680;27.704;2024-01-06T03:49:54;7.70;;;3.65;;
9795;SDS011;4937;42.680;27.704;2024-01-06T03:52:19;6.90;;;3.83;;
9795;SDS011;4937;42.680;27.704;2024-01-06T03:54:45;7.13;;;3.60;;
9795;SDS011;4937;42.680;27.704;2024-01-06T03:57:10;6.45;;;3.63;;
9795;SDS011;4937;42.680;27.704;2024-01-06T03:59:36;8.40;;;3.65;;
9795;SDS011;4937;42.680;27.704;2024-01-06T04:02:01;5.63;;;3.47;;
9795;SDS011;4937;42.680;27.704;2024-01-06T04:04:27;4.32;;;3.03;;
9795;SDS011;4937;42.680;27.704;2024-01-06T04:06:52;6.57;;;3.38;;
9795;SDS011;4937;42.680;27.704;2024-01-06T04:09:18;6.32;;;3.78;;
9795;SDS011;4937;42.680;27.704;2024-01-06T04:11:43;6.15;;;3.30;;
9795;SDS011;4937;42.680;27.704;2024-01-06T04:14:09;6.65;;;3.80;;
9795;SDS011;4937;42.680;27.704;2024-01-06T04:16:34;8.00;;;3.83;;
9795;SDS011;4937;42.680;27.704;2024-01-06T04:19:00;7.07;;;3.60;;
9795;SDS011;4937;42.680;27.704;2024-01-06T04:21:26;7.45;;;3.45;;
9795;SDS011;4937;42.680;27.704;2024-01-06T04:23:51;5.90;;;4.00;;
9795;SDS011;4937;42.680;27.704;2024-01-06T04:26:16;4.57;;;3.28;;
9795;SDS011;4937;42.680;27.704;2024-01-06T04:28:42;4.28;;;3.00;;
9795;SDS011;4937;42.680;27.704;2024-01-06T04:31:07;6.95;;;3.63;;
9795;SDS011;4937;42.680;27.704;2024-01-06T04:33:33;6.03;;;3.20;;
9795;SDS011;4937;42.680;27.704;2024-01-06T04:35:59;8.38;;;3.60;;
9795;SDS011;4937;42.680;27.704;2024-01-06T04:38:26;5.88;;;3.15;;
9795;SDS011;4937;42.680;27.704;2024-01-06T04:40:52;7.65;;;3.42;;
9795;SDS011;4937;42.680;27.704;2024-01-06T04:43:18;5.93;;;3.17;;
9795;SDS011;4937;42.680;27.704;2024-01-06T04:45:43;6.63;;;3.70;;
9795;SDS011;4937;42.680;27.704;2024-01-06T04:48:09;5.22;;;3.15;;
9795;SDS011;4937;42.680;27.704;2024-01-06T04:50:34;7.28;;;3.88;;
9795;SDS011;4937;42.680;27.704;2024-01-06T04:53:00;6.38;;;3.08;;
9795;SDS011;4937;42.680;27.704;2024-01-06T04:55:25;4.65;;;3.33;;
9795;SDS011;4937;42.680;27.704;2024-01-06T04:57:51;6.70;;;3.97;;
9795;SDS011;4937;42.680;27.704;2024-01-06T05:00:16;6.82;;;3.45;;
9795;SDS011;4937;42.680;27.704;2024-01-06T05:02:42;5.57;;;3.10;;
9795;SDS011;4937;42.680;27.704;2024-01-06T05:05:07;5.82;;;3.17;;
9795;SDS011;4937;42.680;27.704;2024-01-06T05:07:33;7.15;;;3.20;;
9795;SDS011;4937;42.680;27.704;2024-01-06T05:09:58;7.53;;;3.88;;
9795;SDS011;4937;42.680;27.704;2024-01-06T05:12:24;6.38;;;3.08;;
9795;SDS011;4937;42.680;27.704;2024-01-06T05:14:49;7.30;;;3.30;;
9795;SDS011;4937;42.680;27.704;2024-01-06T05:17:15;6.55;;;3.15;;
9795;SDS011;4937;42.680;27.704;2024-01-06T05:19:40;9.07;;;3.30;;
9795;SDS011;4937;42.680;27.704;2024-01-06T05:22:06;5.78;;;3.40;;
9795;SDS011;4937;42.680;27.704;2024-01-06T05:24:32;7.38;;;3.35;;
9795;SDS011;4937;42.680;27.704;2024-01-06T05:26:57;6.18;;;3.45;;
9795;SDS011;4937;42.680;27.704;2024-01-06T05:29:23;7.32;;;3.38;;
9795;SDS011;4937;42.680;27.704;2024-01-06T05:31:50;5.45;;;2.83;;
9795;SDS011;4937;42.680;27.704;2024-01-06T05:34:16;3.97;;;2.67;;
9795;SDS011;4937;42.680;27.704;2024-01-06T05:36:42;4.45;;;3.00;;
9795;SDS011;4937;42.680;27.704;2024-01-06T05:39:07;5.68;;;2.70;;
9795;SDS011;4937;42.680;27.704;2024-01-06T05:41:39;6.97;;;3.58;;
9795;SDS011;4937;42.680;27.704;2024-01-06T05:44:05;5.75;;;2.63;;
9795;SDS011;4937;42.680;27.704;2024-01-06T05:46:31;5.70;;;2.97;;
9795;SDS011;4937;42.680;27.704;2024-01-06T05:48:57;6.15;;;3.35;;
9795;SDS011;4937;42.680;27.704;2024-01-06T05:51:22;5.85;;;3.15;;
9795;SDS011;4937;42.680;27.704;2024-01-06T05:53:48;5.28;;;2.58;;
9795;SDS011;4937;42.680;27.704;2024-01-06T05:56:26;9.40;;;2.80;;
9795;SDS011;4937;42.680;27.704;2024-01-06T05:58:52;3.78;;;2.40;;
9795;SDS011;4937;42.680;27.704;2024-01-06T06:01:18;4.60;;;2.78;;
9795;SDS011;4937;42.680;27.704;2024-01-06T06:03:44;5.03;;;2.92;;
9795;SDS011;4937;42.680;27.704;2024-01-06T06:06:11;5.68;;;2.60;;
9795;SDS011;4937;42.680;27.704;2024-01-06T06:08:36;4.78;;;2.70;;
9795;SDS011;4937;42.680;27.704;2024-01-06T06:11:02;10.45;;;2.67;;
9795;SDS011;4937;42.680;27.704;2024-01-06T06:13:30;4.70;;;2.28;;
9795;SDS011;4937;42.680;27.704;2024-01-06T06:15:56;6.75;;;2.15;;
9795;SDS011;4937;42.680;27.704;2024-01-06T06:18:22;3.88;;;2.50;;
9795;SDS011;4937;42.680;27.704;2024-01-06T06:20:48;2.45;;;2.00;;
9795;SDS011;4937;42.680;27.704;2024-01-06T06:23:13;3.47;;;2.30;;
9795;SDS011;4937;42.680;27.704;2024-01-06T06:25:39;5.72;;;2.47;;
9795;SDS011;4937;42.680;27.704;2024-01-06T06:28:05;4.13;;;2.40;;
9795;SDS011;4937;42.680;27.704;2024-01-06T06:30:31;5.20;;;2.13;;
9795;SDS011;4937;42.680;27.704;2024-01-06T06:32:57;4.70;;;2.60;;
9795;SDS011;4937;42.680;27.704;2024-01-06T06:35:23;6.07;;;2.60;;
9795;SDS011;4937;42.680;27.704;2024-01-06T06:37:49;8.02;;;2.58;;
9795;SDS011;4937;42.680;27.704;2024-01-06T06:40:15;5.95;;;2.58;;
9795;SDS011;4937;42.680;27.704;2024-01-06T06:42:40;7.88;;;3.05;;
9795;SDS011;4937;42.680;27.704;2024-01-06T06:45:06;5.22;;;2.88;;
9795;SDS011;4937;42.680;27.704;2024-01-06T06:47:32;5.53;;;2.83;;
9795;SDS011;4937;42.680;27.704;2024-01-06T06:49:58;4.32;;;2.97;;
9795;SDS011;4937;42.680;27.704;2024-01-06T06:52:23;6.15;;;2.72;;
9795;SDS011;4937;42.680;27.704;2024-01-06T06:54:49;3.80;;;2.97;;
9795;SDS011;4937;42.680;27.704;2024-01-06T06:57:15;4.28;;;2.42;;
9795;SDS011;4937;42.680;27.704;2024-01-06T06:59:40;4.35;;;3.10;;
9795;SDS011;4937;42.680;27.704;2024-01-06T07:02:06;5.30;;;2.97;;
9795;SDS011;4937;42.680;27.704;2024-01-06T07:04:32;4.60;;;2.65;;
9795;SDS011;4937;42.680;27.704;2024-01-06T07:06:57;5.93;;;3.20;;
9795;SDS011;4937;42.680;27.704;2024-01-06T07:09:23;5.15;;;2.67;;
9795;SDS011;4937;42.680;27.704;2024-01-06T07:11:49;4.30;;;2.83;;
9795;SDS011;4937;42.680;27.704;2024-01-06T07:14:15;4.82;;;2.53;;
9795;SDS011;4937;42.680;27.704;2024-01-06T07:16:41;4.40;;;2.50;;
9795;SDS011;4937;42.680;27.704;2024-01-06T07:19:07;6.80;;;2.85;;
9795;SDS011;4937;42.680;27.704;2024-01-06T07:21:32;5.07;;;2.65;;
9795;SDS011;4937;42.680;27.704;2024-01-06T07:23:58;5.07;;;3.10;;
9795;SDS011;4937;42.680;27.704;2024-01-06T07:26:24;6.28;;;3.92;;
9795;SDS011;4937;42.680;27.704;2024-01-06T07:28:49;5.93;;;2.92;;
9795;SDS011;4937;42.680;27.704;2024-01-06T07:31:15;4.50;;;2.67;;
9795;SDS011;4937;42.680;27.704;2024-01-06T07:33:42;3.67;;;2.90;;
9795;SDS011;4937;42.680;27.704;2024-01-06T07:36:08;3.60;;;2.78;;
9795;SDS011;4937;42.680;27.704;2024-01-06T07:38:33;5.22;;;2.67;;
9795;SDS011;4937;42.680;27.704;2024-01-06T07:40:59;4.05;;;2.90;;
9795;SDS011;4937;42.680;27.704;2024-01-06T07:43:24;6.40;;;3.40;;
9795;SDS011;4937;42.680;27.704;2024-01-06T07:45:50;3.53;;;2.40;;
9795;SDS011;4937;42.680;27.704;2024-01-06T07:48:16;3.03;;;2.42;;
9795;SDS011;4937;42.680;27.704;2024-01-06T07:50:42;4.53;;;3.30;;
9795;SDS011;4937;42.680;27.704;2024-01-06T07:53:07;4.78;;;3.10;;
9795;SDS011;4937;42.680;27.704;2024-01-06T07:55:33;5.95;;;2.70;;
9795;SDS011;4937;42.680;27.704;2024-01-06T07:57:58;5.90;;;2.70;;
9795;SDS011;4937;42.680;27.704;2024-01-06T08:00:24;5.53;;;2.38;;
9795;SDS011;4937;42.680;27.704;2024-01-06T08:02:50;7.10;;;2.92;;
9795;SDS011;4937;42.680;27.704;2024-01-06T08:05:15;2.95;;;2.42;;
9795;SDS011;4937;42.680;27.704;2024-01-06T08:07:41;4.20;;;2.30;;
9795;SDS011;4937;42.680;27.704;2024-01-06T08:10:07;1.92;;;1.73;;
9795;SDS011;4937;42.680;27.704;2024-01-06T08:12:34;4.95;;;2.40;;
9795;SDS011;4937;42.680;27.704;2024-01-06T08:14:59;3.38;;;2.13;;
9795;SDS011;4937;42.680;27.704;2024-01-06T08:17:25;6.13;;;3.38;;
9795;SDS011;4937;42.680;27.704;2024-01-06T08:19:50;5.80;;;2.63;;
9795;SDS011;4937;42.680;27.704;2024-01-06T08:22:16;4.68;;;2.67;;
9795;SDS011;4937;42.680;27.704;2024-01-06T08:24:42;6.40;;;3.65;;
9795;SDS011;4937;42.680;27.704;2024-01-06T08:27:07;6.03;;;3.13;;
9795;SDS011;4937;42.680;27.704;2024-01-06T08:29:33;9.43;;;4.45;;
9795;SDS011;4937;42.680;27.704;2024-01-06T08:31:59;6.68;;;3.50;;
9795;SDS011;4937;42.680;27.704;2024-01-06T08:34:25;5.65;;;4.22;;
9795;SDS011;4937;42.680;27.704;2024-01-06T08:36:50;6.30;;;4.10;;
9795;SDS011;4937;42.680;27.704;2024-01-06T08:39:16;6.55;;;3.67;;
9795;SDS011;4937;42.680;27.704;2024-01-06T08:41:41;10.23;;;4.50;;
9795;SDS011;4937;42.680;27.704;2024-01-06T08:44:07;5.97;;;3.53;;
9795;SDS011;4937;42.680;27.704;2024-01-06T08:46:33;6.03;;;3.70;;
9795;SDS011;4937;42.680;27.704;2024-01-06T08:48:58;9.80;;;4.78;;
9795;SDS011;4937;42.680;27.704;2024-01-06T08:51:25;7.40;;;3.58;;
9795;SDS011;4937;42.680;27.704;2024-01-06T08:53:51;6.07;;;4.15;;
9795;SDS011;4937;42.680;27.704;2024-01-06T08:56:17;7.00;;;3.38;;
9795;SDS011;4937;42.680;27.704;2024-01-06T08:58:43;6.57;;;3.20;;
9795;SDS011;4937;42.680;27.704;2024-01-06T09:01:09;8.85;;;3.50;;
9795;SDS011;4937;42.680;27.704;2024-01-06T09:03:34;9.93;;;3.72;;
9795;SDS011;4937;42.680;27.704;2024-01-06T09:06:00;6.78;;;3.50;;
9795;SDS011;4937;42.680;27.704;2024-01-06T09:08:26;6.25;;;3.63;;
9795;SDS011;4937;42.680;27.704;2024-01-06T09:10:51;7.88;;;3.75;;
9795;SDS011;4937;42.680;27.704;2024-01-06T09:13:20;6.60;;;2.97;;
9795;SDS011;4937;42.680;27.704;2024-01-06T09:15:47;9.30;;;3.50;;
9795;SDS011;4937;42.680;27.704;2024-01-06T09:18:12;5.68;;;3.47;;
9795;SDS011;4937;42.680;27.704;2024-01-06T09:20:38;5.45;;;2.80;;
9795;SDS011;4937;42.680;27.704;2024-01-06T09:23:03;7.30;;;2.80;;
9795;SDS011;4937;42.680;27.704;2024-01-06T09:25:29;5.07;;;2.65;;
9795;SDS011;4937;42.680;27.704;2024-01-06T09:27:55;7.40;;;3.35;;
9795;SDS011;4937;42.680;27.704;2024-01-06T09:30:20;4.28;;;2.65;;
9795;SDS011;4937;42.680;27.704;2024-01-06T09:32:46;8.20;;;3.17;;
9795;SDS011;4937;42.680;27.704;2024-01-06T09:35:11;7.35;;;3.22;;
9795;SDS011;4937;42.680;27.704;2024-01-06T09:37:37;5.90;;;2.53;;
9795;SDS011;4937;42.680;27.704;2024-01-06T09:40:03;5.28;;;2.85;;
9795;SDS011;4937;42.680;27.704;2024-01-06T09:42:28;5.32;;;3.40;;
9795;SDS011;4937;42.680;27.704;2024-01-06T09:44:54;8.40;;;3.83;;
9795;SDS011;4937;42.680;27.704;2024-01-06T09:47:19;4.97;;;3.97;;
9795;SDS011;4937;42.680;27.704;2024-01-06T09:49:50;7.85;;;3.83;;
9795;SDS011;4937;42.680;27.704;2024-01-06T09:52:20;7.47;;;4.43;;
9795;SDS011;4937;42.680;27.704;2024-01-06T09:54:56;9.85;;;3.65;;
9795;SDS011;4937;42.680;27.704;2024-01-06T09:57:22;7.38;;;3.67;;
9795;SDS011;4937;42.680;27.704;2024-01-06T09:59:48;7.57;;;3.50;;
9795;SDS011;4937;42.680;27.704;2024-01-06T10:02:14;6.78;;;3.13;;
9795;SDS011;4937;42.680;27.704;2024-01-06T10:04:42;6.65;;;2.60;;
9795;SDS011;4937;42.680;27.704;2024-01-06T10:07:08;7.65;;;3.40;;
9795;SDS011;4937;42.680;27.704;2024-01-06T10:09:37;4.93;;;2.90;;
9795;SDS011;4937;42.680;27.704;2024-01-06T10:12:02;8.15;;;3.70;;
9795;SDS011;4937;42.680;27.704;2024-01-06T10:14:28;9.07;;;3.42;;
9795;SDS011;4937;42.680;27.704;2024-01-06T10:16:54;8.90;;;3.25;;
9795;SDS011;4937;42.680;27.704;2024-01-06T10:19:19;6.22;;;3.42;;
9795;SDS011;4937;42.680;27.704;2024-01-06T10:21:46;6.40;;;3.33;;
9795;SDS011;4937;42.680;27.704;2024-01-06T10:24:11;8.88;;;3.85;;
9795;SDS011;4937;42.680;27.704;2024-01-06T10:26:37;13.13;;;3.92;;
9795;SDS011;4937;42.680;27.704;2024-01-06T10:29:03;7.93;;;3.45;;
9795;SDS011;4937;42.680;27.704;2024-01-06T10:31:29;6.50;;;3.45;;
9795;SDS011;4937;42.680;27.704;2024-01-06T10:33:55;7.35;;;3.60;;
9795;SDS011;4937;42.680;27.704;2024-01-06T10:36:22;7.10;;;3.47;;
9795;SDS011;4937;42.680;27.704;2024-01-06T10:38:49;6.50;;;3.15;;
9795;SDS011;4937;42.680;27.704;2024-01-06T10:41:18;6.38;;;2.70;;
9795;SDS011;4937;42.680;27.704;2024-01-06T10:46:12;6.88;;;3.13;;
9795;SDS011;4937;42.680;27.704;2024-01-06T10:48:39;6.30;;;3.42;;
9795;SDS011;4937;42.680;27.704;2024-01-06T10:51:09;6.97;;;2.75;;
9795;SDS011;4937;42.680;27.704;2024-01-06T10:53:36;7.55;;;3.13;;
9795;SDS011;4937;42.680;27.704;2024-01-06T10:56:04;4.30;;;3.05;;
9795;SDS011;4937;42.680;27.704;2024-01-06T10:58:33;6.22;;;3.50;;
9795;SDS011;4937;42.680;27.704;2024-01-06T11:01:02;10.02;;;3.15;;
9795;SDS011;4937;42.680;27.704;2024-01-06T11:03:28;6.10;;;2.78;;
9795;SDS011;4937;42.680;27.704;2024-01-06T11:05:54;6.75;;;3.17;;
9795;SDS011;4937;42.680;27.704;2024-01-06T11:08:22;3.85;;;2.05;;
9795;SDS011;4937;42.680;27.704;2024-01-06T11:10:48;4.32;;;2.47;;
9795;SDS011;4937;42.680;27.704;2024-01-06T11:13:16;3.92;;;2.50;;
9795;SDS011;4937;42.680;27.704;2024-01-06T11:15:49;7.13;;;2.47;;
9795;SDS011;4937;42.680;27.704;2024-01-06T11:21:25;7.75;;;2.42;;
9795;SDS011;4937;42.680;27.704;2024-01-06T11:26:34;4.68;;;2.63;;
9795;SDS011;4937;42.680;27.704;2024-01-06T11:29:05;4.45;;;2.00;;
9795;SDS011;4937;42.680;27.704;2024-01-06T11:31:32;8.32;;;3.03;;
9795;SDS011;4937;42.680;27.704;2024-01-06T11:34:11;4.70;;;2.35;;
9795;SDS011;4937;42.680;27.704;2024-01-06T11:36:43;4.30;;;2.40;;
9795;SDS011;4937;42.680;27.704;2024-01-06T11:39:33;8.27;;;3.05;;
9795;SDS011;4937;42.680;27.704;2024-01-06T11:42:03;4.30;;;2.25;;
9795;SDS011;4937;42.680;27.704;2024-01-06T11:44:29;5.72;;;2.10;;
9795;SDS011;4937;42.680;27.704;2024-01-06T11:46:58;5.43;;;3.15;;
9795;SDS011;4937;42.680;27.704;2024-01-06T11:49:26;4.47;;;1.83;;
9795;SDS011;4937;42.680;27.704;2024-01-06T11:51:58;3.75;;;2.08;;
9795;SDS011;4937;42.680;27.704;2024-01-06T11:56:50;5.32;;;1.98;;
9795;SDS011;4937;42.680;27.704;2024-01-06T11:59:19;5.07;;;2.22;;
9795;SDS011;4937;42.680;27.704;2024-01-06T12:01:45;4.00;;;2.00;;
9795;SDS011;4937;42.680;27.704;2024-01-06T12:04:13;6.13;;;1.52;;
9795;SDS011;4937;42.680;27.704;2024-01-06T12:06:39;6.45;;;2.30;;
9795;SDS011;4937;42.680;27.704;2024-01-06T12:09:05;5.97;;;2.78;;
9795;SDS011;4937;42.680;27.704;2024-01-06T12:11:31;4.15;;;1.83;;
9795;SDS011;4937;42.680;27.704;2024-01-06T12:13:57;2.40;;;1.83;;
9795;SDS011;4937;42.680;27.704;2024-01-06T12:16:22;3.75;;;1.98;;
9795;SDS011;4937;42.680;27.704;2024-01-06T12:18:52;3.78;;;1.90;;
9795;SDS011;4937;42.680;27.704;2024-01-06T12:21:21;6.63;;;2.30;;
9795;SDS011;4937;42.680;27.704;2024-01-06T12:23:47;4.47;;;2.30;;
9795;SDS011;4937;42.680;27.704;2024-01-06T12:26:13;7.10;;;2.40;;
9795;SDS011;4937;42.680;27.704;2024-01-06T12:28:38;6.00;;;1.90;;
9795;SDS011;4937;42.680;27.704;2024-01-06T12:31:04;7.18;;;2.10;;
9795;SDS011;4937;42.680;27.704;2024-01-06T12:33:34;3.80;;;1.98;;
9795;SDS011;4937;42.680;27.704;2024-01-06T12:36:02;3.70;;;1.73;;
9795;SDS011;4937;42.680;27.704;2024-01-06T12:38:32;3.78;;;2.00;;
9795;SDS011;4937;42.680;27.704;2024-01-06T12:40:57;4.72;;;2.35;;
9795;SDS011;4937;42.680;27.704;2024-01-06T12:43:23;4.38;;;1.70;;
9795;SDS011;4937;42.680;27.704;2024-01-06T12:45:48;6.53;;;2.20;;
9795;SDS011;4937;42.680;27.704;2024-01-06T12:48:17;4.15;;;2.22;;
9795;SDS011;4937;42.680;27.704;2024-01-06T12:50:43;4.88;;;2.38;;
9795;SDS011;4937;42.680;27.704;2024-01-06T12:53:09;5.82;;;2.03;;
9795;SDS011;4937;42.680;27.704;2024-01-06T12:55:37;6.10;;;2.50;;
9795;SDS011;4937;42.680;27.704;2024-01-06T12:58:02;4.90;;;2.10;;
9795;SDS011;4937;42.680;27.704;2024-01-06T13:00:29;3.42;;;2.00;;
9795;SDS011;4937;42.680;27.704;2024-01-06T13:02:54;4.90;;;2.08;;
9795;SDS011;4937;42.680;27.704;2024-01-06T13:05:20;4.40;;;2.42;;
9795;SDS011;4937;42.680;27.704;2024-01-06T13:07:46;6.18;;;2.33;;
9795;SDS011;4937;42.680;27.704;2024-01-06T13:10:11;3.00;;;2.10;;
9795;SDS011;4937;42.680;27.704;2024-01-06T13:12:37;6.35;;;2.42;;
9795;SDS011;4937;42.680;27.704;2024-01-06T13:15:02;5.20;;;2.20;;
9795;SDS011;4937;42.680;27.704;2024-01-06T13:17:29;4.22;;;2.03;;
9795;SDS011;4937;42.680;27.704;2024-01-06T13:19:54;5.20;;;2.13;;
9795;SDS011;4937;42.680;27.704;2024-01-06T13:22:21;4.45;;;1.90;;
9795;SDS011;4937;42.680;27.704;2024-01-06T13:24:47;5.25;;;2.15;;
9795;SDS011;4937;42.680;27.704;2024-01-06T13:27:12;4.82;;;2.10;;
9795;SDS011;4937;42.680;27.704;2024-01-06T13:29:38;8.90;;;2.50;;
9795;SDS011;4937;42.680;27.704;2024-01-06T13:32:04;4.75;;;1.73;;
9795;SDS011;4937;42.680;27.704;2024-01-06T13:34:30;5.22;;;2.10;;
9795;SDS011;4937;42.680;27.704;2024-01-06T13:36:56;8.55;;;2.65;;
9795;SDS011;4937;42.680;27.704;2024-01-06T13:39:22;7.85;;;2.42;;
9795;SDS011;4937;42.680;27.704;2024-01-06T13:41:48;4.30;;;2.47;;
9795;SDS011;4937;42.680;27.704;2024-01-06T13:44:14;7.38;;;3.45;;
9795;SDS011;4937;42.680;27.704;2024-01-06T13:46:41;4.45;;;2.30;;
9795;SDS011;4937;42.680;27.704;2024-01-06T13:49:10;4.40;;;2.25;;
9795;SDS011;4937;42.680;27.704;2024-01-06T13:51:37;5.90;;;2.40;;
9795;SDS011;4937;42.680;27.704;2024-01-06T13:54:03;6.05;;;2.38;;
9795;SDS011;4937;42.680;27.704;2024-01-06T13:56:29;4.35;;;2.30;;
9795;SDS011;4937;42.680;27.704;2024-01-06T13:58:54;6.45;;;2.30;;
9795;SDS011;4937;42.680;27.704;2024-01-06T14:01:20;6.70;;;2.53;;
9795;SDS011;4937;42.680;27.704;2024-01-06T14:03:45;7.53;;;2.78;;
9795;SDS011;4937;42.680;27.704;2024-01-06T14:06:11;8.77;;;2.88;;
9795;SDS011;4937;42.680;27.704;2024-01-06T14:08:37;6.28;;;2.85;;
9795;SDS011;4937;42.680;27.704;2024-01-06T14:11:02;6.10;;;2.60;;
9795;SDS011;4937;42.680;27.704;2024-01-06T14:13:28;8.45;;;3.28;;
9795;SDS011;4937;42.680;27.704;2024-01-06T14:15:53;12.35;;;3.00;;
9795;SDS011;4937;42.680;27.704;2024-01-06T14:18:19;7.68;;;2.90;;
9795;SDS011;4937;42.680;27.704;2024-01-06T14:20:45;8.45;;;3.13;;
9795;SDS011;4937;42.680;27.704;2024-01-06T14:23:11;5.88;;;2.80;;
9795;SDS011;4937;42.680;27.704;2024-01-06T14:25:36;7.80;;;2.83;;
9795;SDS011;4937;42.680;27.704;2024-01-06T14:28:02;8.82;;;3.13;;
9795;SDS011;4937;42.680;27.704;2024-01-06T14:30:27;6.22;;;2.90;;
9795;SDS011;4937;42.680;27.704;2024-01-06T14:32:54;4.68;;;2.95;;
9795;SDS011;4937;42.680;27.704;2024-01-06T14:35:19;6.50;;;3.03;;
9795;SDS011;4937;42.680;27.704;2024-01-06T14:37:45;6.57;;;3.28;;
9795;SDS011;4937;42.680;27.704;2024-01-06T14:40:11;8.32;;;3.60;;
9795;SDS011;4937;42.680;27.704;2024-01-06T14:42:37;5.45;;;2.90;;
9795;SDS011;4937;42.680;27.704;2024-01-06T14:45:02;8.90;;;3.10;;
9795;SDS011;4937;42.680;27.704;2024-01-06T14:47:28;7.68;;;3.92;;
9795;SDS011;4937;42.680;27.704;2024-01-06T14:49:54;7.30;;;3.20;;
9795;SDS011;4937;42.680;27.704;2024-01-06T14:52:20;9.07;;;3.58;;
9795;SDS011;4937;42.680;27.704;2024-01-06T14:54:45;9.95;;;4.43;;
9795;SDS011;4937;42.680;27.704;2024-01-06T14:57:11;9.48;;;3.80;;
9795;SDS011;4937;42.680;27.704;2024-01-06T14:59:37;8.98;;;4.07;;
9795;SDS011;4937;42.680;27.704;2024-01-06T15:02:03;8.40;;;3.78;;
9795;SDS011;4937;42.680;27.704;2024-01-06T15:04:28;9.43;;;3.83;;